Time;durP1;ratioP1;P1;durP2;ratioP2;P2;SDS_P1;SDS_P2;PMS_P1;PMS_P2;Temp;Humidity;BMP_temperature;BMP_pressure;BME280_temperature;BME280_humidity;BME280_pressure;Samples;Min_cycle;Max_cycle;Signal;HPM_P1;HPM_P2
2024/03/16 00:01:25;;;;;;;0.60;0.60;;;;;;;-145.69;65.79;52337.44;5116165;27;20205;-81
2024/03/16 00:03:52;;;;;;;1.33;0.80;;;;;;;-145.69;66.10;52331.50;5115897;27;20200;-81
2024/03/16 00:06:19;;;;;;;0.50;0.50;;;;;;;-145.69;66.48;52357.25;5104949;28;20198;-81
2024/03/16 00:08:45;;;;;;;1.07;0.70;;;;;;;-145.69;66.50;52339.44;5110444;27;20204;-81
2024/03/16 00:11:12;;;;;;;1.77;0.70;;;;;;;-145.69;66.83;52369.13;5115717;27;20225;-81
2024/03/16 00:13:39;;;;;;;0.80;0.53;;;;;;;-145.69;66.47;52369.13;5115910;27;20201;-81
2024/03/16 00:16:06;;;;;;;2.43;0.67;;;;;;;-145.69;66.63;52313.69;5115521;27;20197;-81
2024/03/16 00:18:36;;;;;;;1.37;0.60;;;;;;;-145.69;66.83;52365.16;5115942;27;20225;-81
2024/03/16 00:21:02;;;;;;;1.03;0.60;;;;;;;-145.69;66.35;52349.31;5116227;27;20205;-81
2024/03/16 00:23:29;;;;;;;0.60;0.60;;;;;;;-145.69;65.69;52357.25;5115539;27;20200;-81
2024/03/16 00:25:56;;;;;;;1.00;0.60;;;;;;;-145.69;66.43;52319.63;5115593;27;20303;-80
2024/03/16 00:28:22;;;;;;;0.60;0.60;;;;;;;-145.69;66.71;52333.47;5131617;27;20193;-81
2024/03/16 00:30:49;;;;;;;1.37;0.60;;;;;;;-145.69;66.36;52325.56;5115494;27;20207;-80
2024/03/16 00:33:16;;;;;;;3.43;0.70;;;;;;;-145.69;66.83;52323.59;5115364;27;20204;-81
2024/03/16 00:35:44;;;;;;;0.90;0.80;;;;;;;-145.69;65.86;52333.47;5116047;27;20200;-81
2024/03/16 00:38:11;;;;;;;0.60;0.50;;;;;;;-145.69;65.80;52365.16;5115701;27;20239;-81
2024/03/16 00:40:38;;;;;;;3.30;0.90;;;;;;;-145.69;65.61;52337.44;5114995;28;20330;-81
2024/03/16 00:43:05;;;;;;;0.87;0.73;;;;;;;-145.69;65.78;52343.38;5115113;28;20201;-81
2024/03/16 00:45:31;;;;;;;0.60;0.60;;;;;;;-145.69;65.36;52329.53;5115345;27;20273;-81
2024/03/16 00:47:59;;;;;;;1.87;0.77;;;;;;;-145.69;64.95;52331.50;5115424;28;20197;-81
2024/03/16 00:50:26;;;;;;;0.53;0.50;;;;;;;-145.69;64.63;52305.75;5115116;28;20227;-81
2024/03/16 00:52:53;;;;;;;0.70;0.70;;;;;;;-145.69;64.89;52353.28;5114881;28;20220;-81
2024/03/16 00:55:19;;;;;;;2.13;0.80;;;;;;;-145.69;64.99;52305.75;5115110;28;20201;-81
2024/03/16 00:57:46;;;;;;;3.20;1.00;;;;;;;-145.69;64.83;52331.50;5115214;27;20197;-81
2024/03/16 01:00:14;;;;;;;0.87;0.70;;;;;;;-145.69;65.01;52301.81;5115124;27;20213;-81
2024/03/16 01:02:41;;;;;;;4.57;0.67;;;;;;;-145.69;64.79;52325.56;5115508;28;20723;-81
2024/03/16 01:05:08;;;;;;;1.40;0.80;;;;;;;-145.69;64.74;52335.47;5115186;28;20203;-81
2024/03/16 01:07:35;;;;;;;2.03;0.70;;;;;;;-145.69;64.58;52317.66;5115154;28;20269;-81
2024/03/16 01:10:02;;;;;;;0.70;0.70;;;;;;;-145.69;65.22;52359.22;5114536;28;20201;-80
2024/03/16 01:12:28;;;;;;;0.60;0.60;;;;;;;-145.69;64.87;52339.44;5114618;27;20221;-80
2024/03/16 01:14:55;;;;;;;1.20;0.70;;;;;;;-145.69;65.33;52317.66;5114024;28;20196;-81
2024/03/16 01:17:21;;;;;;;3.70;0.90;;;;;;;-145.69;65.00;52317.66;5115264;28;20219;-80
2024/03/16 01:19:48;;;;;;;1.23;0.80;;;;;;;-145.69;64.41;52353.28;5114778;28;20201;-80
2024/03/16 01:22:15;;;;;;;0.60;0.60;;;;;;;-145.69;64.04;52317.66;5115080;28;20192;-80
2024/03/16 01:24:41;;;;;;;5.83;0.90;;;;;;;-145.69;63.77;52331.50;5114933;28;20200;-80
2024/03/16 01:27:08;;;;;;;0.77;0.50;;;;;;;-145.69;63.79;52325.56;5114789;28;20204;-80
2024/03/16 01:29:35;;;;;;;0.93;0.63;;;;;;;-145.69;64.45;52315.66;5118268;27;20215;-80
2024/03/16 01:32:04;;;;;;;1.48;0.57;;;;;;;-145.69;65.32;52278.03;5117654;27;21034;-80
2024/03/16 01:34:30;;;;;;;0.80;0.60;;;;;;;-145.69;64.48;52329.53;5118970;27;20670;-81
2024/03/16 01:36:57;;;;;;;0.68;0.60;;;;;;;-145.69;64.18;52313.69;5118479;27;20231;-81
2024/03/16 01:39:24;;;;;;;0.53;0.53;;;;;;;-145.69;63.95;52313.69;5118476;27;20201;-81
2024/03/16 01:41:50;;;;;;;1.42;0.80;;;;;;;-145.69;64.03;52329.53;5118321;27;20193;-81
2024/03/16 01:44:17;;;;;;;0.67;0.50;;;;;;;-145.69;63.39;52317.66;5118893;27;20204;-81
2024/03/16 01:46:44;;;;;;;1.75;0.52;;;;;;;-145.69;63.36;52339.44;5118643;27;20200;-82
2024/03/16 01:49:10;;;;;;;2.20;0.70;;;;;;;-145.69;64.13;52329.53;5118764;27;20196;-81
2024/03/16 01:51:37;;;;;;;1.37;0.60;;;;;;;-145.69;62.90;52317.66;5118272;27;20240;-81
2024/03/16 01:54:04;;;;;;;1.20;0.70;;;;;;;-145.69;63.11;52327.53;5118367;27;20679;-81
2024/03/16 01:56:31;;;;;;;2.20;0.53;;;;;;;-145.69;64.50;52353.28;5118478;27;20265;-82
2024/03/16 01:58:57;;;;;;;1.30;0.60;;;;;;;-145.69;64.74;52321.59;5118339;27;20205;-82
2024/03/16 02:01:25;;;;;;;1.13;0.70;;;;;;;-145.69;65.50;52333.47;5118168;27;20556;-81
2024/03/16 02:03:53;;;;;;;1.23;0.60;;;;;;;-145.69;65.81;52325.56;5118152;27;20197;-81
2024/03/16 02:06:20;;;;;;;1.00;0.70;;;;;;;-145.69;66.34;52373.09;5118530;27;20193;-81
2024/03/16 02:08:47;;;;;;;1.00;0.70;;;;;;;-145.69;66.03;52323.59;5118050;27;20201;-81
2024/03/16 02:11:13;;;;;;;0.87;0.50;;;;;;;-145.69;66.53;52329.53;5117615;27;20651;-80
2024/03/16 02:13:40;;;;;;;0.87;0.70;;;;;;;-145.69;66.83;52323.59;5111808;28;20197;-81
2024/03/16 02:16:06;;;;;;;0.60;0.60;;;;;;;-145.69;66.75;52349.31;5097501;28;20193;-81
2024/03/16 02:18:33;;;;;;;1.70;0.60;;;;;;;-145.69;68.43;52349.31;5107819;27;20460;-79
2024/03/16 02:20:59;;;;;;;2.07;0.70;;;;;;;-145.69;68.34;52371.13;5117788;27;20200;-80
2024/03/16 02:23:26;;;;;;;2.97;0.70;;;;;;;-145.69;67.42;52355.28;5117218;27;20200;-80
2024/03/16 02:25:53;;;;;;;0.53;0.53;;;;;;;-145.69;67.32;52341.41;5117909;27;20192;-81
2024/03/16 02:28:19;;;;;;;0.57;0.57;;;;;;;-145.69;67.50;52367.16;5117877;27;20200;-80
2024/03/16 02:30:46;;;;;;;1.60;0.60;;;;;;;-145.69;67.30;52361.22;5118277;27;20401;-81
2024/03/16 02:33:14;;;;;;;0.70;0.70;;;;;;;-145.69;67.05;52373.09;5117581;27;20223;-81
2024/03/16 02:35:40;;;;;;;0.60;0.60;;;;;;;-145.69;67.00;52355.28;5117527;27;20219;-81
2024/03/16 02:38:07;;;;;;;2.13;0.60;;;;;;;-145.69;66.66;52339.44;5117683;27;20192;-81
2024/03/16 02:40:33;;;;;;;1.77;0.77;;;;;;;-145.69;66.28;52343.38;5117477;27;20199;-81
2024/03/16 02:43:00;;;;;;;1.07;0.80;;;;;;;-145.69;66.11;52345.38;5117783;27;20211;-82
2024/03/16 02:45:27;;;;;;;1.40;0.60;;;;;;;-145.69;66.23;52321.59;5117329;27;20193;-82
2024/03/16 02:47:54;;;;;;;2.03;0.60;;;;;;;-145.69;65.56;52329.53;5117488;27;20201;-81
2024/03/16 02:50:20;;;;;;;0.67;0.67;;;;;;;-145.69;65.51;52335.47;5116791;27;20232;-81
2024/03/16 02:52:47;;;;;;;1.83;0.60;;;;;;;-145.69;65.38;52331.50;5116936;27;20678;-81
2024/03/16 02:55:14;;;;;;;0.60;0.60;;;;;;;-145.69;64.46;52345.38;5117434;27;20592;-81
2024/03/16 02:57:40;;;;;;;3.20;0.70;;;;;;;-145.69;64.63;52305.75;5117298;27;20196;-81
2024/03/16 03:00:11;;;;;;;1.03;0.63;;;;;;;-145.69;64.30;52367.16;5117165;27;20207;-82
2024/03/16 03:02:37;;;;;;;0.70;0.70;;;;;;;-145.69;65.03;52369.13;5117695;27;20287;-81
2024/03/16 03:05:04;;;;;;;3.80;0.70;;;;;;;-145.69;65.73;52333.47;5116611;27;20215;-81
2024/03/16 03:07:31;;;;;;;0.80;0.60;;;;;;;-145.69;66.35;52347.34;5117403;27;20202;-81
2024/03/16 03:09:58;;;;;;;0.73;0.50;;;;;;;-145.69;66.60;52325.56;5116838;27;20203;-81
2024/03/16 03:12:24;;;;;;;1.53;0.60;;;;;;;-145.69;67.10;52365.16;5116660;27;20220;-81
2024/03/16 03:14:51;;;;;;;0.60;0.60;;;;;;;-145.69;67.18;52337.44;5116926;27;20193;-81
2024/03/16 03:17:18;;;;;;;0.83;0.60;;;;;;;-145.69;66.33;52331.50;5112689;28;20194;-81
2024/03/16 03:19:45;;;;;;;0.50;0.50;;;;;;;-145.69;66.85;52377.06;5097164;27;20204;-81
2024/03/16 03:22:11;;;;;;;1.20;0.70;;;;;;;-145.69;66.48;52377.06;5116960;27;20257;-81
2024/03/16 03:24:38;;;;;;;1.00;0.60;;;;;;;-145.69;67.01;52361.22;5116360;27;20204;-81
2024/03/16 03:27:04;;;;;;;1.17;0.70;;;;;;;-145.69;68.24;52365.16;5116818;27;20197;-81
2024/03/16 03:29:31;;;;;;;0.60;0.60;;;;;;;-145.69;67.81;52361.22;5116728;27;20208;-81
2024/03/16 03:31:57;;;;;;;1.23;0.53;;;;;;;-145.69;68.27;52341.41;5116141;27;20228;-81
2024/03/16 03:34:25;;;;;;;1.33;0.60;;;;;;;-145.69;70.18;52379.03;5116627;27;20202;-81
2024/03/16 03:36:51;;;;;;;3.70;0.90;;;;;;;-145.69;69.86;52357.25;5116770;27;20203;-81
2024/03/16 03:39:18;;;;;;;0.60;0.60;;;;;;;-145.69;69.64;52361.22;5116530;27;20193;-81
2024/03/16 03:41:45;;;;;;;0.60;0.60;;;;;;;-145.69;69.41;52347.34;5116441;27;20201;-81
2024/03/16 03:44:21;;;;;;;4.13;0.70;;;;;;;-145.69;70.13;52373.09;5116381;27;20558;-81
2024/03/16 03:46:50;;;;;;;1.80;0.80;;;;;;;-145.69;70.64;52365.16;5112557;28;20189;-82
2024/03/16 03:49:26;;;;;;;0.53;0.53;;;;;;;-145.69;70.34;52359.22;5096381;28;20204;-81
2024/03/16 03:51:53;;;;;;;0.70;0.60;;;;;;;-145.69;70.02;52337.44;5109489;28;20629;-82
2024/03/16 03:54:19;;;;;;;0.80;0.80;;;;;;;-145.69;71.05;52369.13;5112537;28;20548;-82
2024/03/16 03:56:46;;;;;;;0.73;0.73;;;;;;;-145.69;70.90;52355.28;5112445;28;20201;-81
2024/03/16 03:59:12;;;;;;;0.70;0.70;;;;;;;-145.69;71.08;52335.47;5112454;28;20197;-81
2024/03/16 04:01:39;;;;;;;1.37;0.70;;;;;;;-145.69;71.26;52369.13;5112545;28;20232;-82
2024/03/16 04:04:05;;;;;;;1.23;0.70;;;;;;;-145.69;71.37;52325.56;5112393;28;20738;-82
2024/03/16 04:06:32;;;;;;;5.20;0.87;;;;;;;-145.69;70.48;52365.16;5112862;27;20201;-81
2024/03/16 04:08:59;;;;;;;1.47;0.60;;;;;;;-145.69;70.38;52353.28;5115834;27;20208;-82
2024/03/16 04:11:25;;;;;;;0.70;0.70;;;;;;;-145.69;70.46;52361.22;5108132;28;20205;-81
2024/03/16 04:13:52;;;;;;;0.80;0.80;;;;;;;-145.69;70.18;52335.47;5095244;28;20233;-82
2024/03/16 04:16:18;;;;;;;1.03;0.60;;;;;;;-145.69;70.66;52343.38;5095554;28;20193;-81
2024/03/16 04:18:45;;;;;;;2.90;0.77;;;;;;;-145.69;70.23;52369.13;5095512;28;20194;-81
2024/03/16 04:21:12;;;;;;;0.87;0.70;;;;;;;-145.69;69.91;52349.31;5107498;27;20200;-83
2024/03/16 04:23:39;;;;;;;1.13;0.60;;;;;;;-145.69;69.78;52349.31;5115756;27;20200;-81
2024/03/16 04:26:05;;;;;;;1.57;0.70;;;;;;;-145.69;69.47;52325.56;5115545;27;20203;-82
2024/03/16 04:28:32;;;;;;;0.90;0.90;;;;;;;-145.69;69.29;52369.13;5114943;28;20199;-82
2024/03/16 04:30:58;;;;;;;0.80;0.60;;;;;;;-145.69;69.19;52373.09;5115632;27;20201;-81
2024/03/16 04:33:27;;;;;;;2.33;0.90;;;;;;;-145.69;69.64;52371.13;5115233;28;20220;-82
2024/03/16 04:35:53;;;;;;;2.50;0.93;;;;;;;-145.69;69.44;52345.38;5115827;28;20254;-82
2024/03/16 04:38:21;;;;;;;2.40;0.70;;;;;;;-145.69;69.93;52317.66;5115525;27;20200;-82
2024/03/16 04:40:48;;;;;;;1.93;0.73;;;;;;;-145.69;69.36;52365.16;5115537;28;20651;-82
2024/03/16 04:43:16;;;;;;;1.13;0.70;;;;;;;-145.69;69.21;52365.16;5115589;27;20196;-81
2024/03/16 04:45:42;;;;;;;1.20;0.90;;;;;;;-145.69;69.12;52379.03;5115547;28;20598;-82
2024/03/16 04:48:10;;;;;;;1.43;0.90;;;;;;;-145.69;68.99;52343.38;5115390;28;20196;-81
2024/03/16 04:50:36;;;;;;;1.47;0.90;;;;;;;-145.69;69.49;52333.47;5114831;28;20228;-82
2024/03/16 04:53:03;;;;;;;5.13;1.00;;;;;;;-145.69;69.84;52375.06;5115339;28;20221;-82
2024/03/16 04:55:29;;;;;;;9.03;0.97;;;;;;;-145.69;70.02;52353.28;5115136;28;20208;-81
2024/03/16 04:57:57;;;;;;;2.53;0.83;;;;;;;-145.69;69.91;52357.25;5114884;28;20654;-81
2024/03/16 05:00:24;;;;;;;3.23;1.33;;;;;;;-145.69;69.36;52343.38;5115376;28;20205;-82
2024/03/16 05:02:51;;;;;;;1.23;0.80;;;;;;;-145.69;70.12;52384.97;5116360;27;20211;-81
2024/03/16 05:05:18;;;;;;;3.10;1.10;;;;;;;-145.69;70.33;52325.56;5119423;27;20200;-81
2024/03/16 05:07:45;;;;;;;2.33;0.90;;;;;;;-145.69;71.01;52361.22;5119116;27;20239;-83
2024/03/16 05:10:11;;;;;;;4.07;1.13;;;;;;;-145.69;71.16;52349.31;5119495;27;20196;-81
2024/03/16 05:12:38;;;;;;;5.17;1.00;;;;;;;-145.69;70.96;52375.06;5119325;27;20220;-83
2024/03/16 05:15:05;;;;;;;3.27;1.30;;;;;;;-145.69;70.62;52371.13;5118921;27;20200;-83
2024/03/16 05:17:32;;;;;;;4.07;0.90;;;;;;;-145.69;70.23;52373.09;5119402;27;20204;-82
2024/03/16 05:19:59;;;;;;;3.93;1.00;;;;;;;-145.69;70.05;52361.22;5118728;27;20593;-81
2024/03/16 05:22:25;;;;;;;2.97;1.20;;;;;;;-145.69;70.28;52337.44;5118297;27;20200;-81
2024/03/16 05:24:52;;;;;;;1.80;0.93;;;;;;;-145.69;70.06;52369.13;5118582;27;20219;-81
2024/03/16 05:27:19;;;;;;;4.67;1.20;;;;;;;-145.69;71.30;52347.34;5117167;27;20198;-81
2024/03/16 05:29:45;;;;;;;3.40;1.13;;;;;;;-145.69;71.45;52329.53;5118841;27;20193;-80
2024/03/16 05:32:12;;;;;;;1.90;0.93;;;;;;;-145.69;71.27;52341.41;5118862;27;20201;-82
2024/03/16 05:34:39;;;;;;;3.87;0.90;;;;;;;-145.69;70.44;52349.31;5118182;27;20223;-82
2024/03/16 05:37:06;;;;;;;3.07;1.00;;;;;;;-145.69;70.70;52329.53;5118456;27;20189;-82
2024/03/16 05:39:33;;;;;;;4.00;1.30;;;;;;;-145.69;70.21;52345.38;5118830;27;20200;-81
2024/03/16 05:41:59;;;;;;;3.70;1.00;;;;;;;-145.69;69.44;52309.72;5118729;27;20225;-81
2024/03/16 05:44:26;;;;;;;5.83;1.30;;;;;;;-145.69;69.41;52341.41;5118612;27;20196;-81
2024/03/16 05:46:52;;;;;;;5.80;1.23;;;;;;;-145.69;69.46;52337.44;5114978;28;20213;-82
2024/03/16 05:49:19;;;;;;;4.70;1.13;;;;;;;-145.69;69.12;52335.47;5115158;28;20529;-80
2024/03/16 05:51:47;;;;;;;3.67;1.57;;;;;;;-145.69;69.36;52341.41;5111486;27;20224;-81
2024/03/16 05:54:14;;;;;;;3.30;1.00;;;;;;;-145.69;69.18;52355.28;5118924;27;20221;-80
2024/03/16 05:56:40;;;;;;;9.40;1.60;;;;;;;-145.69;68.71;52353.28;5118199;27;20201;-81
2024/03/16 05:59:08;;;;;;;4.67;1.00;;;;;;;-145.69;69.49;52327.53;5118273;27;20222;-81
2024/03/16 06:01:36;;;;;;;4.07;1.33;;;;;;;-145.69;68.59;52359.22;5118505;27;20205;-81
2024/03/16 06:04:03;;;;;;;3.03;1.00;;;;;;;-145.69;68.40;52333.47;5118424;27;20212;-81
2024/03/16 06:06:31;;;;;;;2.53;1.20;;;;;;;-145.69;68.31;52325.56;5118169;27;20247;-81
2024/03/16 06:08:58;;;;;;;2.80;0.80;;;;;;;-145.69;68.09;52335.47;5118154;27;20279;-81
2024/03/16 06:11:26;;;;;;;16.60;5.93;;;;;;;-145.69;67.87;52333.47;5118281;27;20211;-81
2024/03/16 06:13:53;;;;;;;14.37;4.00;;;;;;;-145.69;68.25;52349.31;5117525;27;20224;-80
2024/03/16 06:16:21;;;;;;;5.33;2.30;;;;;;;-145.69;68.02;52325.56;5118183;27;20192;-82
2024/03/16 06:18:48;;;;;;;3.93;1.70;;;;;;;-145.69;67.42;52339.44;5114129;27;20193;-82
2024/03/16 06:21:14;;;;;;;4.93;1.50;;;;;;;-145.69;68.20;52353.28;5107111;27;20251;-81
2024/03/16 06:23:41;;;;;;;4.73;1.10;;;;;;;-145.69;68.03;52373.09;5118153;27;20197;-81
2024/03/16 06:26:09;;;;;;;1.57;1.33;;;;;;;-145.69;67.87;52317.66;5117610;27;20201;-80
2024/03/16 06:28:38;;;;;;;6.67;2.00;;;;;;;-145.69;67.56;52323.59;5117980;27;20200;-81
2024/03/16 06:31:10;;;;;;;3.37;1.23;;;;;;;-145.69;67.53;52309.72;5118144;27;20201;-81
2024/03/16 06:33:37;;;;;;;1.70;0.87;;;;;;;-145.69;67.06;52323.59;5118885;27;20224;-81
2024/03/16 06:36:03;;;;;;;4.07;0.98;;;;;;;-145.69;67.05;52349.31;5117703;27;20280;-83
2024/03/16 06:38:30;;;;;;;4.00;1.10;;;;;;;-145.69;67.53;52333.47;5117647;27;20201;-82
2024/03/16 06:40:57;;;;;;;5.97;1.60;;;;;;;-145.69;68.75;52329.53;5117357;27;20705;-82
2024/03/16 06:43:24;;;;;;;2.27;1.40;;;;;;;-145.69;68.17;52333.47;5116831;27;20206;-82
2024/03/16 06:45:50;;;;;;;5.53;1.37;;;;;;;-145.69;68.16;52361.22;5117326;27;20204;-82
2024/03/16 06:48:17;;;;;;;4.83;1.83;;;;;;;-145.69;67.92;52335.47;5117601;27;20818;-82
2024/03/16 06:50:45;;;;;;;7.55;2.60;;;;;;;-145.69;67.26;52339.44;5116954;27;20297;-82
2024/03/16 06:53:12;;;;;;;3.90;1.93;;;;;;;-145.69;67.36;52341.41;5116754;27;20217;-82
2024/03/16 06:55:39;;;;;;;5.53;1.60;;;;;;;-145.69;66.95;52297.84;5117299;27;20201;-82
2024/03/16 06:58:05;;;;;;;3.37;1.70;;;;;;;-145.69;65.72;52319.63;5117251;27;20212;-82
2024/03/16 07:00:32;;;;;;;3.30;1.00;;;;;;;-145.69;64.41;52317.66;5117151;27;20200;-81
2024/03/16 07:02:58;;;;;;;3.50;0.93;;;;;;;-145.69;64.28;52329.53;5117611;27;20205;-82
2024/03/16 07:05:25;;;;;;;2.22;1.20;;;;;;;-145.69;63.49;52345.38;5117405;27;20205;-82
2024/03/16 07:07:52;;;;;;;2.10;1.00;;;;;;;-145.69;63.74;52317.66;5117012;27;20193;-82
2024/03/16 07:10:18;;;;;;;3.38;0.90;;;;;;;-145.69;63.07;52329.53;5113486;28;20198;-82
2024/03/16 07:12:45;;;;;;;1.25;1.00;;;;;;;-145.69;62.78;52309.72;5108624;27;20200;-82
2024/03/16 07:15:15;;;;;;;2.28;0.80;;;;;;;-145.69;61.87;52341.41;5113410;28;20201;-81
2024/03/16 07:17:41;;;;;;;2.15;0.85;;;;;;;-145.69;62.25;52285.97;5096863;28;20197;-81
2024/03/16 07:20:11;;;;;;;1.85;0.70;;;;;;;-145.69;62.08;52323.59;5109575;27;20200;-81
2024/03/16 07:22:37;;;;;;;1.98;0.80;;;;;;;-145.69;61.90;52297.84;5116661;27;20269;-81
2024/03/16 07:25:04;;;;;;;2.58;0.85;;;;;;;-145.69;61.95;52317.66;5116029;28;20197;-81
2024/03/16 07:27:32;;;;;;;1.50;0.70;;;;;;;-145.69;61.54;52307.75;5116897;27;20531;-82
2024/03/16 07:29:58;;;;;;;0.80;0.70;;;;;;;-145.69;61.62;52297.84;5116749;27;20197;-81
2024/03/16 07:32:25;;;;;;;1.98;0.80;;;;;;;-145.69;60.62;52282.00;5112917;28;20204;-80
2024/03/16 07:34:52;;;;;;;0.95;0.90;;;;;;;-145.69;60.39;52347.34;5096320;28;20233;-82
2024/03/16 07:37:18;;;;;;;3.50;0.90;;;;;;;-145.69;60.29;52309.72;5095764;28;20205;-83
2024/03/16 07:39:45;;;;;;;4.00;0.98;;;;;;;-145.69;59.36;52274.06;5096034;28;20207;-81
2024/03/16 07:42:12;;;;;;;4.00;0.70;;;;;;;-145.69;59.41;52305.75;5095724;28;20228;-82
2024/03/16 07:44:40;;;;;;;1.63;0.77;;;;;;;-145.69;58.86;52282.00;5095944;28;20201;-82
2024/03/16 07:47:07;;;;;;;3.08;0.88;;;;;;;-145.69;58.08;52307.75;5096447;28;20287;-83
2024/03/16 07:49:33;;;;;;;2.22;0.88;;;;;;;-145.69;57.98;52313.69;5096131;28;20247;-82
2024/03/16 07:52:00;;;;;;;1.55;0.65;;;;;;;-145.69;58.08;52295.84;5106852;28;20221;-82
2024/03/16 07:54:27;;;;;;;2.65;0.80;;;;;;;-145.69;57.53;52309.72;5112510;28;20289;-81
2024/03/16 07:56:53;;;;;;;2.45;1.00;;;;;;;-145.69;57.30;52293.88;5112180;28;20202;-82
2024/03/16 07:59:20;;;;;;;3.10;1.00;;;;;;;-145.69;56.79;52297.84;5112570;28;20647;-82
2024/03/16 08:01:47;;;;;;;3.20;0.98;;;;;;;-145.69;57.57;52282.00;5112310;28;20194;-82
2024/03/16 08:04:13;;;;;;;3.72;1.05;;;;;;;-145.69;58.21;52293.88;5112500;28;20648;-83
2024/03/16 08:06:40;;;;;;;1.42;0.50;;;;;;;-145.69;58.21;52285.97;5112382;28;20235;-82
2024/03/16 08:09:08;;;;;;;5.18;0.77;;;;;;;-145.69;59.05;52266.16;5111884;28;20213;-81
2024/03/16 08:11:35;;;;;;;1.80;1.00;;;;;;;-145.69;59.53;52262.19;5112240;28;20250;-83
2024/03/16 08:14:05;;;;;;;1.98;0.80;;;;;;;-145.69;58.01;52272.09;5115468;27;20223;-82
2024/03/16 08:16:32;;;;;;;4.97;1.30;;;;;;;-145.69;57.60;52258.22;5116149;27;20197;-82
2024/03/16 08:18:59;;;;;;;1.95;0.88;;;;;;;-145.69;58.38;52258.22;5109802;28;20193;-81
2024/03/16 08:21:25;;;;;;;2.75;1.20;;;;;;;-145.69;59.31;52299.81;5105292;27;20228;-82
2024/03/16 08:23:52;;;;;;;3.00;0.77;;;;;;;-145.69;59.44;52268.13;5115519;27;20196;-82
2024/03/16 08:26:18;;;;;;;2.05;1.08;;;;;;;-145.69;59.31;52291.91;5115709;27;20581;-84
2024/03/16 08:28:45;;;;;;;1.95;0.93;;;;;;;-145.69;60.32;52291.91;5115852;27;20215;-82
2024/03/16 08:31:12;;;;;;;2.08;0.85;;;;;;;-145.69;60.13;52282.00;5115623;27;20284;-83
2024/03/16 08:33:39;;;;;;;3.92;1.10;;;;;;;-145.69;60.77;52262.19;5115266;27;20228;-82
2024/03/16 08:36:06;;;;;;;2.47;0.85;;;;;;;-145.69;59.83;52297.84;5115076;27;20207;-82
2024/03/16 08:38:33;;;;;;;2.63;0.70;;;;;;;-145.69;59.08;52278.03;5115653;27;20204;-82
2024/03/16 08:41:00;;;;;;;1.65;0.60;;;;;;;-145.69;58.86;52258.22;5115273;27;20196;-81
2024/03/16 08:43:26;;;;;;;0.63;0.60;;;;;;;-145.69;59.30;52313.69;5115316;27;20204;-82
2024/03/16 08:45:53;;;;;;;0.63;0.63;;;;;;;-145.69;58.83;52276.06;5115574;28;20204;-81
2024/03/16 08:48:20;;;;;;;3.65;0.68;;;;;;;-145.69;59.21;52297.84;5115625;27;20193;-81
2024/03/16 08:50:47;;;;;;;0.95;0.60;;;;;;;-145.69;58.03;52293.88;5114556;27;20220;-81
2024/03/16 08:53:14;;;;;;;1.48;0.70;;;;;;;-145.69;59.12;52297.84;5115414;28;20189;-81
2024/03/16 08:55:40;;;;;;;3.80;0.88;;;;;;;-145.69;58.68;52287.94;5111650;28;20193;-83
2024/03/16 08:58:07;;;;;;;4.18;0.63;;;;;;;-145.69;57.72;52305.75;5094934;28;20220;-83
2024/03/16 09:00:34;;;;;;;1.15;0.70;;;;;;;-145.69;57.01;52305.75;5095212;28;20197;-83
2024/03/16 09:03:01;;;;;;;1.73;0.60;;;;;;;-145.69;56.17;52305.75;5099672;28;20196;-83
2024/03/16 09:05:27;;;;;;;1.55;0.60;;;;;;;-145.69;55.72;52266.16;5115125;28;20223;-83
2024/03/16 09:07:54;;;;;;;1.27;0.73;;;;;;;-145.69;54.18;52258.22;5114699;28;20666;-82
2024/03/16 09:10:20;;;;;;;2.25;0.80;;;;;;;-145.69;54.34;52262.19;5115304;28;20196;-83
2024/03/16 09:12:47;;;;;;;3.75;0.70;;;;;;;-145.69;53.51;52256.25;5115116;28;20674;-83
2024/03/16 09:15:15;;;;;;;0.68;0.50;;;;;;;-145.69;53.32;52254.28;5113342;28;20249;-81
2024/03/16 09:17:41;;;;;;;2.15;0.70;;;;;;;-145.69;51.90;52270.13;5111587;27;20193;-82
2024/03/16 09:20:10;;;;;;;1.65;0.63;;;;;;;-145.69;53.40;52250.31;5113642;28;20197;-81
2024/03/16 09:22:36;;;;;;;1.15;0.68;;;;;;;-145.69;53.38;52282.00;5103998;28;20193;-79
2024/03/16 09:25:05;;;;;;;0.80;0.52;;;;;;;-145.69;54.44;52250.31;5094454;28;20248;-80
2024/03/16 09:27:32;;;;;;;1.65;0.60;;;;;;;-145.69;54.95;52256.25;5104836;27;20440;-80
2024/03/16 09:29:59;;;;;;;2.10;0.60;;;;;;;-145.69;54.71;52240.41;5135468;27;20235;-80
2024/03/16 09:32:25;;;;;;;3.58;0.70;;;;;;;-145.69;53.82;52236.44;5135441;27;20223;-80
2024/03/16 09:34:52;;;;;;;2.13;0.60;;;;;;;-145.69;54.74;52256.25;5118939;28;20223;-82
2024/03/16 09:37:19;;;;;;;0.93;0.55;;;;;;;-145.69;55.54;52242.38;5115111;28;20320;-81
2024/03/16 09:39:46;;;;;;;1.73;0.75;;;;;;;-145.69;56.10;52270.13;5114786;28;20745;-82
2024/03/16 09:42:12;;;;;;;3.78;0.80;;;;;;;-145.69;55.91;52293.88;5114663;28;20193;-82
2024/03/16 09:44:39;;;;;;;2.13;0.60;;;;;;;-145.69;54.33;52254.28;5114417;28;20201;-80
2024/03/16 09:47:07;;;;;;;1.92;0.70;;;;;;;-145.69;54.33;52278.03;5114600;28;20710;-82
2024/03/16 09:49:35;;;;;;;2.60;0.77;;;;;;;-145.69;55.01;52274.06;5117210;27;20607;-82
2024/03/16 09:52:03;;;;;;;1.50;0.60;;;;;;;-145.69;53.91;52287.94;5112038;27;20312;-82
2024/03/16 09:54:31;;;;;;;1.92;0.63;;;;;;;-145.69;54.08;52258.22;5118588;27;20315;-81
2024/03/16 09:56:58;;;;;;;1.05;0.50;;;;;;;-145.69;53.38;52246.34;5118877;27;20283;-81
2024/03/16 09:59:25;;;;;;;0.77;0.70;;;;;;;-145.69;52.66;52246.34;5114598;28;20197;-82
2024/03/16 10:01:51;;;;;;;0.55;0.43;;;;;;;-145.69;51.85;52250.31;5098060;28;20258;-81
2024/03/16 10:04:18;;;;;;;0.80;0.40;;;;;;;-145.69;52.21;52274.06;5097732;28;20209;-82
2024/03/16 10:06:44;;;;;;;0.47;0.47;;;;;;;-145.69;52.04;52246.34;5097946;28;20201;-81
2024/03/16 10:09:12;;;;;;;1.35;0.80;;;;;;;-145.69;52.92;52262.19;5112211;27;20658;-82
2024/03/16 10:11:39;;;;;;;1.23;0.50;;;;;;;-145.69;52.11;52248.34;5118565;27;20201;-81
2024/03/16 10:14:07;;;;;;;0.77;0.55;;;;;;;-145.69;52.40;52258.22;5117898;27;20232;-81
2024/03/16 10:16:57;;;;;;;1.15;0.70;;;;;;;-145.69;53.19;52240.41;5104205;28;20201;-81
2024/03/16 10:19:24;;;;;;;0.55;0.40;;;;;;;-145.69;53.44;52266.16;5114638;28;20555;-81
2024/03/16 10:21:51;;;;;;;0.95;0.47;;;;;;;-145.69;52.80;52236.44;5109819;27;20189;-81
2024/03/16 10:24:19;;;;;;;1.58;0.60;;;;;;;-145.69;53.47;52274.06;5118015;27;20295;-81
2024/03/16 10:26:47;;;;;;;2.05;0.65;;;;;;;-145.69;52.77;52246.34;5118087;27;20257;-80
2024/03/16 10:29:24;;;;;;;2.33;1.13;;;;;;;-145.69;53.20;52262.19;5114195;28;20272;-79
2024/03/16 10:31:50;;;;;;;1.17;0.90;;;;;;;-145.69;53.16;52250.31;5098640;28;20677;-80
2024/03/16 10:34:17;;;;;;;1.45;0.60;;;;;;;-145.69;52.97;52266.16;5097283;28;20224;-80
2024/03/16 10:36:44;;;;;;;2.22;0.95;;;;;;;-145.69;53.86;52280.00;5097100;28;20285;-80
2024/03/16 10:39:16;;;;;;;2.47;0.60;;;;;;;-145.69;54.91;52250.31;5096368;28;20623;-80
2024/03/16 10:41:45;;;;;;;3.22;0.50;;;;;;;-145.69;60.26;52238.44;5097724;28;20674;-81
2024/03/16 10:44:12;;;;;;;0.70;0.60;;;;;;;-145.69;61.94;52325.56;5096909;28;20212;-80
2024/03/16 10:46:42;;;;;;;2.60;0.55;;;;;;;-145.69;62.47;52297.84;5097204;28;20282;-79
2024/03/16 10:49:10;;;;;;;1.38;0.50;;;;;;;-145.69;62.99;52260.22;5097543;28;20239;-80
2024/03/16 10:51:44;;;;;;;3.25;0.73;;;;;;;-145.69;63.11;52287.94;5109887;27;20239;-80
2024/03/16 10:54:11;;;;;;;1.95;0.60;;;;;;;-145.69;62.67;52297.84;5118488;27;20417;-79
2024/03/16 10:56:38;;;;;;;0.52;0.50;;;;;;;-145.69;62.71;52287.94;5116906;27;20735;-79
2024/03/16 10:59:06;;;;;;;2.58;0.70;;;;;;;-145.69;62.02;52297.84;5117218;27;20197;-80
2024/03/16 11:01:33;;;;;;;0.90;0.50;;;;;;;-145.69;61.35;52289.91;5117447;27;20220;-80
2024/03/16 11:04:01;;;;;;;1.48;0.50;;;;;;;-145.69;61.35;52305.75;5113298;28;20225;-79
2024/03/16 11:06:28;;;;;;;1.27;0.40;;;;;;;-145.69;61.44;52323.59;5096953;28;20205;-81
2024/03/16 11:08:55;;;;;;;1.13;0.40;;;;;;;-145.69;61.22;52268.13;5097135;28;20284;-82
2024/03/16 11:11:22;;;;;;;1.23;0.50;;;;;;;-145.69;62.44;52287.94;5096457;28;20204;-81
2024/03/16 11:14:07;;;;;;;1.42;0.35;;;;;;;-145.69;62.37;52285.97;5100010;27;20219;-81
2024/03/16 11:16:35;;;;;;;1.13;0.50;;;;;;;-145.69;61.96;52305.75;5129283;27;20184;-80